sensor_id;sensor_type;location;lat;lon;timestamp;P1;durP1;ratioP1;P2;durP2;ratioP2
6973;SDS011;3527;52.376;8.990;2022-09-01T00:00:18;2.17;;;1.20;;
6973;SDS011;3527;52.376;8.990;2022-09-01T00:03:07;2.70;;;1.20;;
6973;SDS011;3527;52.376;8.990;2022-09-01T00:05:56;1.83;;;1.03;;
6973;SDS011;3527;52.376;8.990;2022-09-01T00:08:44;2.13;;;1.00;;
6973;SDS011;3527;52.376;8.990;2022-09-01T00:11:31;1.53;;;1.03;;
6973;SDS011;3527;52.376;8.990;2022-09-01T00:14:20;1.50;;;1.07;;
6973;SDS011;3527;52.376;8.990;2022-09-01T00:17:15;2.43;;;1.10;;
6973;SDS011;3527;52.376;8.990;2022-09-01T00:20:03;1.57;;;1.30;;
6973;SDS011;3527;52.376;8.990;2022-09-01T00:22:51;3.63;;;1.13;;
6973;SDS011;3527;52.376;8.990;2022-09-01T00:25:38;1.93;;;1.20;;
6973;SDS011;3527;52.376;8.990;2022-09-01T00:28:26;1.87;;;1.20;;
6973;SDS011;3527;52.376;8.990;2022-09-01T00:31:16;1.40;;;1.10;;
6973;SDS011;3527;52.376;8.990;2022-09-01T00:34:07;3.47;;;1.10;;
6973;SDS011;3527;52.376;8.990;2022-09-01T00:36:54;2.10;;;1.43;;
6973;SDS011;3527;52.376;8.990;2022-09-01T00:39:41;2.40;;;1.37;;
6973;SDS011;3527;52.376;8.990;2022-09-01T00:42:28;1.50;;;1.23;;
6973;SDS011;3527;52.376;8.990;2022-09-01T00:45:15;1.87;;;1.40;;
6973;SDS011;3527;52.376;8.990;2022-09-01T00:48:02;2.10;;;1.23;;
6973;SDS011;3527;52.376;8.990;2022-09-01T00:50:52;1.97;;;1.20;;
6973;SDS011;3527;52.376;8.990;2022-09-01T00:53:41;3.00;;;1.43;;
6973;SDS011;3527;52.376;8.990;2022-09-01T00:56:31;2.60;;;1.20;;
6973;SDS011;3527;52.376;8.990;2022-09-01T00:59:21;3.60;;;1.20;;
6973;SDS011;3527;52.376;8.990;2022-09-01T01:02:09;2.00;;;1.50;;
6973;SDS011;3527;52.376;8.990;2022-09-01T01:04:56;1.60;;;1.10;;
6973;SDS011;3527;52.376;8.990;2022-09-01T01:07:45;2.50;;;1.57;;
6973;SDS011;3527;52.376;8.990;2022-09-01T01:10:38;3.80;;;1.43;;
6973;SDS011;3527;52.376;8.990;2022-09-01T01:13:27;1.73;;;1.37;;
6973;SDS011;3527;52.376;8.990;2022-09-01T01:16:17;3.53;;;1.10;;
6973;SDS011;3527;52.376;8.990;2022-09-01T01:19:04;2.53;;;1.23;;
6973;SDS011;3527;52.376;8.990;2022-09-01T01:22:16;2.13;;;1.40;;
6973;SDS011;3527;52.376;8.990;2022-09-01T01:28:31;1.73;;;1.30;;
6973;SDS011;3527;52.376;8.990;2022-09-01T01:31:21;2.60;;;1.20;;
6973;SDS011;3527;52.376;8.990;2022-09-01T01:34:09;5.20;;;1.80;;
6973;SDS011;3527;52.376;8.990;2022-09-01T01:36:56;3.43;;;1.40;;
6973;SDS011;3527;52.376;8.990;2022-09-01T01:39:45;1.77;;;1.30;;
6973;SDS011;3527;52.376;8.990;2022-09-01T01:42:34;2.97;;;1.30;;
6973;SDS011;3527;52.376;8.990;2022-09-01T01:45:21;3.97;;;1.23;;
6973;SDS011;3527;52.376;8.990;2022-09-01T01:48:10;2.47;;;1.33;;
6973;SDS011;3527;52.376;8.990;2022-09-01T01:50:58;3.33;;;1.20;;
6973;SDS011;3527;52.376;8.990;2022-09-01T01:53:46;2.40;;;1.43;;
6973;SDS011;3527;52.376;8.990;2022-09-01T01:56:38;1.73;;;1.30;;
6973;SDS011;3527;52.376;8.990;2022-09-01T01:59:27;1.87;;;1.27;;
6973;SDS011;3527;52.376;8.990;2022-09-01T02:02:15;1.67;;;1.20;;
6973;SDS011;3527;52.376;8.990;2022-09-01T02:05:02;2.63;;;1.50;;
6973;SDS011;3527;52.376;8.990;2022-09-01T02:07:50;2.37;;;1.17;;
6973;SDS011;3527;52.376;8.990;2022-09-01T02:10:43;2.40;;;1.47;;
6973;SDS011;3527;52.376;8.990;2022-09-01T02:13:31;1.70;;;1.30;;
6973;SDS011;3527;52.376;8.990;2022-09-01T02:16:19;3.07;;;1.50;;
6973;SDS011;3527;52.376;8.990;2022-09-01T02:19:07;4.00;;;1.50;;
6973;SDS011;3527;52.376;8.990;2022-09-01T02:21:57;2.17;;;1.40;;
6973;SDS011;3527;52.376;8.990;2022-09-01T02:24:45;1.60;;;1.20;;
6973;SDS011;3527;52.376;8.990;2022-09-01T02:27:38;2.80;;;1.60;;
6973;SDS011;3527;52.376;8.990;2022-09-01T02:30:25;2.80;;;1.50;;
6973;SDS011;3527;52.376;8.990;2022-09-01T02:33:14;3.23;;;1.60;;
6973;SDS011;3527;52.376;8.990;2022-09-01T02:36:06;3.00;;;1.60;;
6973;SDS011;3527;52.376;8.990;2022-09-01T02:38:55;1.60;;;1.20;;
6973;SDS011;3527;52.376;8.990;2022-09-01T02:41:44;2.93;;;1.50;;
6973;SDS011;3527;52.376;8.990;2022-09-01T02:44:31;2.73;;;1.70;;
6973;SDS011;3527;52.376;8.990;2022-09-01T02:47:23;3.00;;;1.70;;
6973;SDS011;3527;52.376;8.990;2022-09-01T02:50:13;2.63;;;1.40;;
6973;SDS011;3527;52.376;8.990;2022-09-01T02:53:02;3.17;;;1.50;;
6973;SDS011;3527;52.376;8.990;2022-09-01T02:55:55;2.87;;;1.40;;
6973;SDS011;3527;52.376;8.990;2022-09-01T02:58:45;2.70;;;1.70;;
6973;SDS011;3527;52.376;8.990;2022-09-01T03:01:32;2.10;;;1.40;;
6973;SDS011;3527;52.376;8.990;2022-09-01T03:04:19;4.40;;;1.60;;
6973;SDS011;3527;52.376;8.990;2022-09-01T03:07:08;2.57;;;1.33;;
6973;SDS011;3527;52.376;8.990;2022-09-01T03:09:55;1.90;;;1.40;;
6973;SDS011;3527;52.376;8.990;2022-09-01T03:12:42;2.33;;;1.50;;
6973;SDS011;3527;52.376;8.990;2022-09-01T03:15:33;2.00;;;1.50;;
6973;SDS011;3527;52.376;8.990;2022-09-01T03:18:22;3.10;;;1.47;;
6973;SDS011;3527;52.376;8.990;2022-09-01T03:21:09;2.80;;;1.67;;
6973;SDS011;3527;52.376;8.990;2022-09-01T03:24:01;3.90;;;1.87;;
6973;SDS011;3527;52.376;8.990;2022-09-01T03:26:49;3.10;;;1.67;;
6973;SDS011;3527;52.376;8.990;2022-09-01T03:29:37;2.03;;;1.77;;
6973;SDS011;3527;52.376;8.990;2022-09-01T03:32:23;2.10;;;1.60;;
6973;SDS011;3527;52.376;8.990;2022-09-01T03:35:11;2.70;;;1.50;;
6973;SDS011;3527;52.376;8.990;2022-09-01T03:37:59;2.50;;;1.73;;
6973;SDS011;3527;52.376;8.990;2022-09-01T03:40:48;3.97;;;1.70;;
6973;SDS011;3527;52.376;8.990;2022-09-01T03:43:48;2.03;;;1.60;;
6973;SDS011;3527;52.376;8.990;2022-09-01T03:46:35;2.93;;;2.07;;
6973;SDS011;3527;52.376;8.990;2022-09-01T03:49:23;2.50;;;1.50;;
6973;SDS011;3527;52.376;8.990;2022-09-01T03:52:10;3.60;;;1.90;;
6973;SDS011;3527;52.376;8.990;2022-09-01T03:54:58;3.97;;;2.10;;
6973;SDS011;3527;52.376;8.990;2022-09-01T03:57:45;3.70;;;2.17;;
6973;SDS011;3527;52.376;8.990;2022-09-01T04:00:35;3.37;;;1.80;;
6973;SDS011;3527;52.376;8.990;2022-09-01T04:03:27;3.83;;;2.20;;
6973;SDS011;3527;52.376;8.990;2022-09-01T04:06:17;4.10;;;1.83;;
6973;SDS011;3527;52.376;8.990;2022-09-01T04:09:06;3.00;;;1.77;;
6973;SDS011;3527;52.376;8.990;2022-09-01T04:11:53;2.00;;;1.80;;
6973;SDS011;3527;52.376;8.990;2022-09-01T04:14:40;2.93;;;1.87;;
6973;SDS011;3527;52.376;8.990;2022-09-01T04:17:27;3.30;;;2.10;;
6973;SDS011;3527;52.376;8.990;2022-09-01T04:20:33;2.93;;;1.97;;
6973;SDS011;3527;52.376;8.990;2022-09-01T04:23:34;2.50;;;2.00;;
6973;SDS011;3527;52.376;8.990;2022-09-01T04:26:22;3.43;;;1.90;;
6973;SDS011;3527;52.376;8.990;2022-09-01T04:29:12;5.20;;;1.90;;
6973;SDS011;3527;52.376;8.990;2022-09-01T04:32:04;4.03;;;2.30;;
6973;SDS011;3527;52.376;8.990;2022-09-01T04:34:55;3.43;;;2.23;;
6973;SDS011;3527;52.376;8.990;2022-09-01T04:37:42;3.57;;;2.10;;
6973;SDS011;3527;52.376;8.990;2022-09-01T04:40:29;3.03;;;2.00;;
6973;SDS011;3527;52.376;8.990;2022-09-01T04:43:16;3.13;;;1.97;;
6973;SDS011;3527;52.376;8.990;2022-09-01T04:46:04;3.07;;;2.27;;
6973;SDS011;3527;52.376;8.990;2022-09-01T04:48:51;5.10;;;2.10;;
6973;SDS011;3527;52.376;8.990;2022-09-01T04:51:40;2.93;;;2.00;;
6973;SDS011;3527;52.376;8.990;2022-09-01T04:54:28;2.47;;;2.07;;
6973;SDS011;3527;52.376;8.990;2022-09-01T04:57:16;3.03;;;2.10;;
6973;SDS011;3527;52.376;8.990;2022-09-01T05:00:03;2.27;;;2.03;;
6973;SDS011;3527;52.376;8.990;2022-09-01T05:02:52;3.43;;;2.20;;
6973;SDS011;3527;52.376;8.990;2022-09-01T05:05:49;4.33;;;2.30;;
6973;SDS011;3527;52.376;8.990;2022-09-01T05:08:36;4.67;;;2.50;;
6973;SDS011;3527;52.376;8.990;2022-09-01T05:11:24;3.13;;;2.50;;
6973;SDS011;3527;52.376;8.990;2022-09-01T05:14:11;2.70;;;2.30;;
6973;SDS011;3527;52.376;8.990;2022-09-01T05:16:58;4.57;;;2.30;;
6973;SDS011;3527;52.376;8.990;2022-09-01T05:19:47;4.17;;;2.63;;
6973;SDS011;3527;52.376;8.990;2022-09-01T05:22:36;3.57;;;2.10;;
6973;SDS011;3527;52.376;8.990;2022-09-01T05:25:26;5.70;;;3.20;;
6973;SDS011;3527;52.376;8.990;2022-09-01T05:28:16;4.00;;;2.60;;
6973;SDS011;3527;52.376;8.990;2022-09-01T05:31:05;4.40;;;2.70;;
6973;SDS011;3527;52.376;8.990;2022-09-01T05:33:53;3.30;;;2.70;;
6973;SDS011;3527;52.376;8.990;2022-09-01T05:36:43;7.10;;;2.73;;
6973;SDS011;3527;52.376;8.990;2022-09-01T05:39:35;2.53;;;2.17;;
6973;SDS011;3527;52.376;8.990;2022-09-01T05:42:23;2.63;;;2.33;;
6973;SDS011;3527;52.376;8.990;2022-09-01T05:45:10;4.70;;;2.70;;
6973;SDS011;3527;52.376;8.990;2022-09-01T05:47:57;3.93;;;2.30;;
6973;SDS011;3527;52.376;8.990;2022-09-01T05:50:45;3.93;;;2.70;;
6973;SDS011;3527;52.376;8.990;2022-09-01T05:53:35;4.23;;;2.37;;
6973;SDS011;3527;52.376;8.990;2022-09-01T05:56:28;5.23;;;2.33;;
6973;SDS011;3527;52.376;8.990;2022-09-01T05:59:16;3.47;;;2.97;;
6973;SDS011;3527;52.376;8.990;2022-09-01T06:02:10;3.83;;;2.23;;
6973;SDS011;3527;52.376;8.990;2022-09-01T06:04:58;4.20;;;2.40;;
6973;SDS011;3527;52.376;8.990;2022-09-01T06:07:45;4.47;;;2.87;;
6973;SDS011;3527;52.376;8.990;2022-09-01T06:10:34;2.87;;;2.60;;
6973;SDS011;3527;52.376;8.990;2022-09-01T06:13:25;4.03;;;2.70;;
6973;SDS011;3527;52.376;8.990;2022-09-01T06:16:13;5.03;;;2.67;;
6973;SDS011;3527;52.376;8.990;2022-09-01T06:19:01;3.93;;;2.90;;
6973;SDS011;3527;52.376;8.990;2022-09-01T06:21:49;3.90;;;2.50;;
6973;SDS011;3527;52.376;8.990;2022-09-01T06:24:37;4.20;;;2.57;;
6973;SDS011;3527;52.376;8.990;2022-09-01T06:27:31;3.70;;;2.50;;
6973;SDS011;3527;52.376;8.990;2022-09-01T06:30:19;3.50;;;2.60;;
6973;SDS011;3527;52.376;8.990;2022-09-01T06:33:12;4.53;;;2.47;;
6973;SDS011;3527;52.376;8.990;2022-09-01T06:35:59;5.80;;;2.47;;
6973;SDS011;3527;52.376;8.990;2022-09-01T06:38:49;3.27;;;2.17;;
6973;SDS011;3527;52.376;8.990;2022-09-01T06:41:38;2.50;;;2.10;;
6973;SDS011;3527;52.376;8.990;2022-09-01T06:44:25;7.10;;;2.27;;
6973;SDS011;3527;52.376;8.990;2022-09-01T06:47:12;5.43;;;2.53;;
6973;SDS011;3527;52.376;8.990;2022-09-01T06:50:02;5.33;;;2.20;;
6973;SDS011;3527;52.376;8.990;2022-09-01T06:52:50;2.67;;;2.00;;
6973;SDS011;3527;52.376;8.990;2022-09-01T06:56:10;2.43;;;1.90;;
6973;SDS011;3527;52.376;8.990;2022-09-01T06:59:00;3.73;;;1.70;;
6973;SDS011;3527;52.376;8.990;2022-09-01T07:01:51;3.20;;;1.90;;
6973;SDS011;3527;52.376;8.990;2022-09-01T07:05:00;2.80;;;1.97;;
6973;SDS011;3527;52.376;8.990;2022-09-01T07:07:48;6.77;;;2.50;;
6973;SDS011;3527;52.376;8.990;2022-09-01T07:10:51;3.60;;;2.00;;
6973;SDS011;3527;52.376;8.990;2022-09-01T07:14:00;3.03;;;2.00;;
6973;SDS011;3527;52.376;8.990;2022-09-01T07:17:07;4.17;;;1.60;;
6973;SDS011;3527;52.376;8.990;2022-09-01T07:20:12;1.90;;;1.60;;
6973;SDS011;3527;52.376;8.990;2022-09-01T07:23:09;3.00;;;1.60;;
6973;SDS011;3527;52.376;8.990;2022-09-01T07:25:57;3.30;;;1.93;;
6973;SDS011;3527;52.376;8.990;2022-09-01T07:28:49;4.63;;;1.70;;
6973;SDS011;3527;52.376;8.990;2022-09-01T07:31:46;2.70;;;1.57;;
6973;SDS011;3527;52.376;8.990;2022-09-01T07:34:35;4.20;;;1.43;;
6973;SDS011;3527;52.376;8.990;2022-09-01T07:37:24;3.20;;;1.40;;
6973;SDS011;3527;52.376;8.990;2022-09-01T07:40:33;4.20;;;1.90;;
6973;SDS011;3527;52.376;8.990;2022-09-01T07:43:43;2.27;;;1.53;;
6973;SDS011;3527;52.376;8.990;2022-09-01T07:46:31;4.80;;;1.60;;
6973;SDS011;3527;52.376;8.990;2022-09-01T07:49:25;3.43;;;1.80;;
6973;SDS011;3527;52.376;8.990;2022-09-01T07:52:15;2.13;;;1.43;;
6973;SDS011;3527;52.376;8.990;2022-09-01T07:57:57;3.27;;;1.70;;
6973;SDS011;3527;52.376;8.990;2022-09-01T08:00:45;3.27;;;1.60;;
6973;SDS011;3527;52.376;8.990;2022-09-01T08:03:33;1.90;;;1.60;;
6973;SDS011;3527;52.376;8.990;2022-09-01T08:06:21;2.97;;;1.40;;
6973;SDS011;3527;52.376;8.990;2022-09-01T08:09:13;4.17;;;1.60;;
6973;SDS011;3527;52.376;8.990;2022-09-01T08:12:20;2.93;;;1.50;;
6973;SDS011;3527;52.376;8.990;2022-09-01T08:15:14;2.20;;;1.40;;
6973;SDS011;3527;52.376;8.990;2022-09-01T08:18:22;3.30;;;1.37;;
6973;SDS011;3527;52.376;8.990;2022-09-01T08:21:12;3.03;;;1.40;;
6973;SDS011;3527;52.376;8.990;2022-09-01T08:24:01;2.83;;;1.30;;
6973;SDS011;3527;52.376;8.990;2022-09-01T08:26:48;4.27;;;1.60;;
6973;SDS011;3527;52.376;8.990;2022-09-01T08:29:35;4.53;;;1.60;;
6973;SDS011;3527;52.376;8.990;2022-09-01T08:32:22;3.37;;;1.60;;
6973;SDS011;3527;52.376;8.990;2022-09-01T08:35:10;4.20;;;1.40;;
6973;SDS011;3527;52.376;8.990;2022-09-01T08:37:58;2.87;;;1.53;;
6973;SDS011;3527;52.376;8.990;2022-09-01T08:40:53;1.87;;;1.20;;
6973;SDS011;3527;52.376;8.990;2022-09-01T08:47:03;3.30;;;1.63;;
6973;SDS011;3527;52.376;8.990;2022-09-01T08:49:58;2.63;;;1.50;;
6973;SDS011;3527;52.376;8.990;2022-09-01T08:52:51;2.73;;;1.33;;
6973;SDS011;3527;52.376;8.990;2022-09-01T08:55:55;3.53;;;1.40;;
6973;SDS011;3527;52.376;8.990;2022-09-01T08:58:44;4.03;;;1.67;;
6973;SDS011;3527;52.376;8.990;2022-09-01T09:01:41;2.30;;;1.33;;
6973;SDS011;3527;52.376;8.990;2022-09-01T09:10:57;2.60;;;1.23;;
6973;SDS011;3527;52.376;8.990;2022-09-01T09:16:46;3.90;;;1.53;;
6973;SDS011;3527;52.376;8.990;2022-09-01T09:19:40;3.40;;;1.80;;
6973;SDS011;3527;52.376;8.990;2022-09-01T09:22:29;2.07;;;1.40;;
6973;SDS011;3527;52.376;8.990;2022-09-01T09:25:17;5.53;;;1.67;;
6973;SDS011;3527;52.376;8.990;2022-09-01T09:28:05;2.50;;;1.60;;
6973;SDS011;3527;52.376;8.990;2022-09-01T09:34:28;3.03;;;1.50;;
6973;SDS011;3527;52.376;8.990;2022-09-01T09:40:17;3.00;;;1.43;;
6973;SDS011;3527;52.376;8.990;2022-09-01T09:43:06;2.27;;;1.20;;
6973;SDS011;3527;52.376;8.990;2022-09-01T09:46:19;2.20;;;1.10;;
6973;SDS011;3527;52.376;8.990;2022-09-01T09:49:23;1.83;;;1.23;;
6973;SDS011;3527;52.376;8.990;2022-09-01T09:52:22;3.07;;;1.10;;
6973;SDS011;3527;52.376;8.990;2022-09-01T09:55:20;6.07;;;1.27;;
6973;SDS011;3527;52.376;8.990;2022-09-01T09:58:10;3.83;;;1.10;;
6973;SDS011;3527;52.376;8.990;2022-09-01T10:01:05;1.87;;;1.13;;
6973;SDS011;3527;52.376;8.990;2022-09-01T10:03:58;1.57;;;1.00;;
6973;SDS011;3527;52.376;8.990;2022-09-01T10:06:47;2.53;;;1.03;;
6973;SDS011;3527;52.376;8.990;2022-09-01T10:09:35;3.07;;;1.20;;
6973;SDS011;3527;52.376;8.990;2022-09-01T10:12:24;3.87;;;1.23;;
6973;SDS011;3527;52.376;8.990;2022-09-01T10:15:11;4.00;;;1.10;;
6973;SDS011;3527;52.376;8.990;2022-09-01T10:18:03;4.43;;;1.10;;
6973;SDS011;3527;52.376;8.990;2022-09-01T10:21:15;2.50;;;1.10;;
6973;SDS011;3527;52.376;8.990;2022-09-01T10:24:24;3.93;;;1.10;;
6973;SDS011;3527;52.376;8.990;2022-09-01T10:27:19;3.27;;;1.00;;
6973;SDS011;3527;52.376;8.990;2022-09-01T10:30:12;2.37;;;1.30;;
6973;SDS011;3527;52.376;8.990;2022-09-01T10:33:06;2.60;;;1.03;;
6973;SDS011;3527;52.376;8.990;2022-09-01T10:36:05;3.30;;;1.10;;
6973;SDS011;3527;52.376;8.990;2022-09-01T10:38:53;2.33;;;1.10;;
6973;SDS011;3527;52.376;8.990;2022-09-01T10:41:50;2.53;;;0.90;;
6973;SDS011;3527;52.376;8.990;2022-09-01T10:44:56;2.63;;;1.20;;
6973;SDS011;3527;52.376;8.990;2022-09-01T10:47:47;2.97;;;1.20;;
6973;SDS011;3527;52.376;8.990;2022-09-01T10:50:35;1.73;;;0.97;;
6973;SDS011;3527;52.376;8.990;2022-09-01T10:56:43;2.93;;;1.00;;
6973;SDS011;3527;52.376;8.990;2022-09-01T10:59:38;1.87;;;1.10;;
6973;SDS011;3527;52.376;8.990;2022-09-01T11:02:41;1.93;;;1.00;;
6973;SDS011;3527;52.376;8.990;2022-09-01T11:08:58;1.57;;;0.80;;
6973;SDS011;3527;52.376;8.990;2022-09-01T11:18:06;1.80;;;0.70;;
6973;SDS011;3527;52.376;8.990;2022-09-01T11:24:42;6.73;;;0.80;;
6973;SDS011;3527;52.376;8.990;2022-09-01T11:31:19;4.90;;;1.00;;
6973;SDS011;3527;52.376;8.990;2022-09-01T11:39:41;2.03;;;0.80;;
6973;SDS011;3527;52.376;8.990;2022-09-01T11:42:38;2.88;;;0.95;;
6973;SDS011;3527;52.376;8.990;2022-09-01T11:45:32;1.25;;;0.90;;
6973;SDS011;3527;52.376;8.990;2022-09-01T11:48:30;1.38;;;0.80;;
6973;SDS011;3527;52.376;8.990;2022-09-01T11:51:17;1.50;;;0.80;;
6973;SDS011;3527;52.376;8.990;2022-09-01T11:54:07;3.60;;;0.80;;
6973;SDS011;3527;52.376;8.990;2022-09-01T11:56:55;1.77;;;1.00;;
6973;SDS011;3527;52.376;8.990;2022-09-01T11:59:45;1.08;;;0.68;;
6973;SDS011;3527;52.376;8.990;2022-09-01T12:02:34;2.47;;;0.85;;
6973;SDS011;3527;52.376;8.990;2022-09-01T12:08:19;1.30;;;0.80;;
6973;SDS011;3527;52.376;8.990;2022-09-01T12:11:20;3.15;;;0.80;;
6973;SDS011;3527;52.376;8.990;2022-09-01T12:14:18;2.55;;;0.90;;
6973;SDS011;3527;52.376;8.990;2022-09-01T12:17:07;0.98;;;0.70;;
6973;SDS011;3527;52.376;8.990;2022-09-01T12:19:55;3.63;;;0.80;;
6973;SDS011;3527;52.376;8.990;2022-09-01T12:23:02;6.85;;;1.10;;
6973;SDS011;3527;52.376;8.990;2022-09-01T12:26:05;1.58;;;0.90;;
6973;SDS011;3527;52.376;8.990;2022-09-01T12:28:56;1.17;;;0.80;;
6973;SDS011;3527;52.376;8.990;2022-09-01T12:31:44;2.17;;;0.70;;
6973;SDS011;3527;52.376;8.990;2022-09-01T12:37:29;3.60;;;1.10;;
6973;SDS011;3527;52.376;8.990;2022-09-01T12:40:31;1.42;;;0.90;;
6973;SDS011;3527;52.376;8.990;2022-09-01T12:43:29;1.77;;;0.80;;
6973;SDS011;3527;52.376;8.990;2022-09-01T12:49:39;1.52;;;0.82;;
6973;SDS011;3527;52.376;8.990;2022-09-01T12:52:46;1.85;;;0.75;;
6973;SDS011;3527;52.376;8.990;2022-09-01T12:55:39;3.03;;;0.95;;
6973;SDS011;3527;52.376;8.990;2022-09-01T12:58:33;1.25;;;0.75;;
6973;SDS011;3527;52.376;8.990;2022-09-01T13:01:25;2.17;;;0.80;;
6973;SDS011;3527;52.376;8.990;2022-09-01T13:07:12;1.48;;;0.85;;
6973;SDS011;3527;52.376;8.990;2022-09-01T13:09:59;1.88;;;0.90;;
6973;SDS011;3527;52.376;8.990;2022-09-01T13:12:47;2.67;;;0.80;;
6973;SDS011;3527;52.376;8.990;2022-09-01T13:15:39;1.65;;;0.80;;
6973;SDS011;3527;52.376;8.990;2022-09-01T13:18:29;1.95;;;0.80;;
6973;SDS011;3527;52.376;8.990;2022-09-01T13:21:17;2.20;;;0.82;;
6973;SDS011;3527;52.376;8.990;2022-09-01T13:24:05;3.15;;;0.90;;
6973;SDS011;3527;52.376;8.990;2022-09-01T13:26:55;0.80;;;0.60;;
6973;SDS011;3527;52.376;8.990;2022-09-01T13:30:03;2.13;;;0.82;;
6973;SDS011;3527;52.376;8.990;2022-09-01T13:32:52;1.60;;;0.80;;
6973;SDS011;3527;52.376;8.990;2022-09-01T13:36:03;1.33;;;0.73;;
6973;SDS011;3527;52.376;8.990;2022-09-01T13:39:11;1.75;;;0.90;;
6973;SDS011;3527;52.376;8.990;2022-09-01T13:41:58;0.93;;;0.70;;
6973;SDS011;3527;52.376;8.990;2022-09-01T13:44:45;0.73;;;0.63;;
6973;SDS011;3527;52.376;8.990;2022-09-01T13:47:38;1.83;;;0.77;;
6973;SDS011;3527;52.376;8.990;2022-09-01T13:50:49;3.47;;;0.90;;
6973;SDS011;3527;52.376;8.990;2022-09-01T13:54:00;1.70;;;0.80;;
6973;SDS011;3527;52.376;8.990;2022-09-01T13:56:48;2.45;;;0.85;;
6973;SDS011;3527;52.376;8.990;2022-09-01T13:59:36;1.83;;;0.70;;
6973;SDS011;3527;52.376;8.990;2022-09-01T14:02:24;2.55;;;0.90;;
6973;SDS011;3527;52.376;8.990;2022-09-01T14:05:11;2.95;;;0.70;;
6973;SDS011;3527;52.376;8.990;2022-09-01T14:07:59;0.75;;;0.55;;
6973;SDS011;3527;52.376;8.990;2022-09-01T14:10:47;1.05;;;0.80;;
6973;SDS011;3527;52.376;8.990;2022-09-01T14:13:36;1.10;;;0.80;;
6973;SDS011;3527;52.376;8.990;2022-09-01T14:16:24;1.70;;;0.82;;
6973;SDS011;3527;52.376;8.990;2022-09-01T14:19:11;2.30;;;0.88;;
6973;SDS011;3527;52.376;8.990;2022-09-01T14:21:58;1.73;;;0.80;;
6973;SDS011;3527;52.376;8.990;2022-09-01T14:24:45;2.53;;;0.90;;
6973;SDS011;3527;52.376;8.990;2022-09-01T14:27:33;2.55;;;0.80;;
6973;SDS011;3527;52.376;8.990;2022-09-01T14:30:21;1.77;;;0.73;;
6973;SDS011;3527;52.376;8.990;2022-09-01T14:33:17;2.85;;;0.98;;
6973;SDS011;3527;52.376;8.990;2022-09-01T14:36:05;3.08;;;0.80;;
6973;SDS011;3527;52.376;8.990;2022-09-01T14:39:00;1.60;;;0.90;;
6973;SDS011;3527;52.376;8.990;2022-09-01T14:41:47;1.17;;;0.77;;
6973;SDS011;3527;52.376;8.990;2022-09-01T14:44:35;1.40;;;0.88;;
6973;SDS011;3527;52.376;8.990;2022-09-01T14:47:23;1.20;;;0.88;;
6973;SDS011;3527;52.376;8.990;2022-09-01T14:50:11;1.10;;;0.70;;
6973;SDS011;3527;52.376;8.990;2022-09-01T14:53:02;1.45;;;0.70;;
6973;SDS011;3527;52.376;8.990;2022-09-01T14:55:50;1.55;;;0.85;;
6973;SDS011;3527;52.376;8.990;2022-09-01T14:58:42;4.70;;;0.90;;
6973;SDS011;3527;52.376;8.990;2022-09-01T15:01:32;1.50;;;0.88;;
6973;SDS011;3527;52.376;8.990;2022-09-01T15:04:20;2.90;;;0.70;;
6973;SDS011;3527;52.376;8.990;2022-09-01T15:07:08;1.92;;;0.90;;
6973;SDS011;3527;52.376;8.990;2022-09-01T15:09:55;2.33;;;1.00;;
6973;SDS011;3527;52.376;8.990;2022-09-01T15:12:44;3.17;;;0.90;;
6973;SDS011;3527;52.376;8.990;2022-09-01T15:15:31;2.17;;;0.85;;
6973;SDS011;3527;52.376;8.990;2022-09-01T15:18:18;1.35;;;0.80;;
6973;SDS011;3527;52.376;8.990;2022-09-01T15:21:05;1.60;;;0.90;;
6973;SDS011;3527;52.376;8.990;2022-09-01T15:23:53;1.60;;;0.98;;
6973;SDS011;3527;52.376;8.990;2022-09-01T15:26:40;1.73;;;0.75;;
6973;SDS011;3527;52.376;8.990;2022-09-01T15:29:27;3.78;;;0.82;;
6973;SDS011;3527;52.376;8.990;2022-09-01T15:32:19;1.35;;;0.77;;
6973;SDS011;3527;52.376;8.990;2022-09-01T15:35:14;1.27;;;1.00;;
6973;SDS011;3527;52.376;8.990;2022-09-01T15:38:02;2.38;;;0.80;;
6973;SDS011;3527;52.376;8.990;2022-09-01T15:40:50;1.30;;;0.77;;
6973;SDS011;3527;52.376;8.990;2022-09-01T15:43:44;1.63;;;0.85;;
6973;SDS011;3527;52.376;8.990;2022-09-01T15:46:31;3.17;;;1.00;;
6973;SDS011;3527;52.376;8.990;2022-09-01T15:49:19;1.13;;;0.75;;
6973;SDS011;3527;52.376;8.990;2022-09-01T15:52:06;1.95;;;0.95;;
6973;SDS011;3527;52.376;8.990;2022-09-01T15:54:53;2.80;;;0.85;;
6973;SDS011;3527;52.376;8.990;2022-09-01T15:57:40;2.58;;;0.80;;
6973;SDS011;3527;52.376;8.990;2022-09-01T16:00:28;1.88;;;0.90;;
6973;SDS011;3527;52.376;8.990;2022-09-01T16:03:15;2.05;;;0.70;;
6973;SDS011;3527;52.376;8.990;2022-09-01T16:06:03;1.73;;;0.95;;
6973;SDS011;3527;52.376;8.990;2022-09-01T16:08:50;4.30;;;1.10;;
6973;SDS011;3527;52.376;8.990;2022-09-01T16:11:40;2.03;;;0.85;;
6973;SDS011;3527;52.376;8.990;2022-09-01T16:14:27;1.15;;;0.80;;
6973;SDS011;3527;52.376;8.990;2022-09-01T16:17:41;1.83;;;0.80;;
6973;SDS011;3527;52.376;8.990;2022-09-01T16:20:34;2.10;;;0.80;;
6973;SDS011;3527;52.376;8.990;2022-09-01T16:23:27;2.13;;;0.90;;
6973;SDS011;3527;52.376;8.990;2022-09-01T16:26:24;3.10;;;0.80;;
6973;SDS011;3527;52.376;8.990;2022-09-01T16:29:13;1.40;;;0.80;;
6973;SDS011;3527;52.376;8.990;2022-09-01T16:32:28;1.02;;;0.80;;
6973;SDS011;3527;52.376;8.990;2022-09-01T16:35:18;3.60;;;0.98;;
6973;SDS011;3527;52.376;8.990;2022-09-01T16:38:16;1.23;;;0.80;;
6973;SDS011;3527;52.376;8.990;2022-09-01T16:41:36;2.65;;;0.90;;
6973;SDS011;3527;52.376;8.990;2022-09-01T16:50:29;1.77;;;0.67;;
6973;SDS011;3527;52.376;8.990;2022-09-01T17:05:47;3.87;;;1.10;;
6973;SDS011;3527;52.376;8.990;2022-09-01T17:08:46;2.40;;;1.20;;
6973;SDS011;3527;52.376;8.990;2022-09-01T17:11:49;2.10;;;0.90;;
6973;SDS011;3527;52.376;8.990;2022-09-01T17:14:44;1.20;;;0.80;;
6973;SDS011;3527;52.376;8.990;2022-09-01T17:18:01;0.87;;;0.80;;
6973;SDS011;3527;52.376;8.990;2022-09-01T17:21:12;1.60;;;0.90;;
6973;SDS011;3527;52.376;8.990;2022-09-01T17:26:59;2.30;;;1.10;;
6973;SDS011;3527;52.376;8.990;2022-09-01T17:29:53;2.67;;;1.07;;
6973;SDS011;3527;52.376;8.990;2022-09-01T17:32:47;2.13;;;1.20;;
6973;SDS011;3527;52.376;8.990;2022-09-01T17:39:39;2.40;;;0.90;;
6973;SDS011;3527;52.376;8.990;2022-09-01T17:45:44;2.90;;;1.00;;
6973;SDS011;3527;52.376;8.990;2022-09-01T17:48:49;2.97;;;1.03;;
6973;SDS011;3527;52.376;8.990;2022-09-01T17:51:58;1.80;;;0.80;;
6973;SDS011;3527;52.376;8.990;2022-09-01T18:01:06;1.53;;;1.00;;
6973;SDS011;3527;52.376;8.990;2022-09-01T18:11:18;2.40;;;1.10;;
6973;SDS011;3527;52.376;8.990;2022-09-01T18:17:24;1.87;;;1.10;;
6973;SDS011;3527;52.376;8.990;2022-09-01T18:20:16;2.57;;;1.07;;
6973;SDS011;3527;52.376;8.990;2022-09-01T18:23:08;1.37;;;1.07;;
6973;SDS011;3527;52.376;8.990;2022-09-01T18:26:08;1.47;;;0.80;;
6973;SDS011;3527;52.376;8.990;2022-09-01T18:29:03;1.53;;;0.90;;
6973;SDS011;3527;52.376;8.990;2022-09-01T18:35:23;2.77;;;1.00;;
6973;SDS011;3527;52.376;8.990;2022-09-01T18:38:24;1.37;;;1.03;;
6973;SDS011;3527;52.376;8.990;2022-09-01T18:41:36;2.33;;;0.90;;
6973;SDS011;3527;52.376;8.990;2022-09-01T18:47:33;5.23;;;1.40;;
6973;SDS011;3527;52.376;8.990;2022-09-01T18:50:31;2.23;;;1.07;;
6973;SDS011;3527;52.376;8.990;2022-09-01T18:53:40;1.67;;;1.00;;
6973;SDS011;3527;52.376;8.990;2022-09-01T18:56:41;2.37;;;1.07;;
6973;SDS011;3527;52.376;8.990;2022-09-01T19:24:05;2.00;;;1.43;;
6973;SDS011;3527;52.376;8.990;2022-09-01T19:27:09;2.77;;;1.60;;
6973;SDS011;3527;52.376;8.990;2022-09-01T19:30:00;3.57;;;2.00;;
6973;SDS011;3527;52.376;8.990;2022-09-01T19:32:50;1.87;;;1.27;;
6973;SDS011;3527;52.376;8.990;2022-09-01T19:35:38;2.67;;;1.07;;
6973;SDS011;3527;52.376;8.990;2022-09-01T19:38:28;2.87;;;1.40;;
6973;SDS011;3527;52.376;8.990;2022-09-01T19:50:46;1.70;;;0.90;;
6973;SDS011;3527;52.376;8.990;2022-09-01T19:53:44;2.63;;;1.10;;
6973;SDS011;3527;52.376;8.990;2022-09-01T20:00:39;1.97;;;0.70;;
6973;SDS011;3527;52.376;8.990;2022-09-01T20:03:34;2.13;;;0.83;;
6973;SDS011;3527;52.376;8.990;2022-09-01T20:06:42;2.80;;;0.97;;
6973;SDS011;3527;52.376;8.990;2022-09-01T20:09:39;3.47;;;1.07;;
6973;SDS011;3527;52.376;8.990;2022-09-01T20:12:35;7.80;;;1.17;;
6973;SDS011;3527;52.376;8.990;2022-09-01T20:18:49;1.83;;;0.80;;
6973;SDS011;3527;52.376;8.990;2022-09-01T20:21:43;2.30;;;0.90;;
6973;SDS011;3527;52.376;8.990;2022-09-01T20:24:36;2.33;;;0.87;;